sensor_id;sensor_type;location;lat;lon;timestamp;pressure;altitude;pressure_sealevel;temperature;humidity
75936;BME280;64614;32.062;34.834;2024-03-23T00:55:43;100894.31;;;23.84;42.04
75936;BME280;64614;32.062;34.834;2024-03-23T00:58:09;100895.09;;;23.84;41.88
75936;BME280;64614;32.062;34.834;2024-03-23T01:00:34;100875.88;;;23.75;42.09
75936;BME280;64614;32.062;34.834;2024-03-23T01:03:00;100889.28;;;23.86;41.98
75936;BME280;64614;32.062;34.834;2024-03-23T01:05:26;100897.53;;;23.86;42.01
75936;BME280;64614;32.062;34.834;2024-03-23T01:07:51;100876.66;;;23.76;42.02
75936;BME280;64614;32.062;34.834;2024-03-23T01:10:17;100887.66;;;23.85;42.21
75936;BME280;64614;32.062;34.834;2024-03-23T01:12:43;100884.44;;;23.83;42.09
75936;BME280;64614;32.062;34.834;2024-03-23T01:15:09;100880.88;;;23.82;41.93
75936;BME280;64614;32.062;34.834;2024-03-23T01:17:34;100888.44;;;23.76;41.95
75936;BME280;64614;32.062;34.834;2024-03-23T01:20:00;100878.63;;;23.75;41.93
75936;BME280;64614;32.062;34.834;2024-03-23T01:22:26;100873.75;;;23.72;42.06
75936;BME280;64614;32.062;34.834;2024-03-23T01:24:51;100882.16;;;23.76;41.94
75936;BME280;64614;32.062;34.834;2024-03-23T01:27:17;100888.94;;;23.78;42.25
75936;BME280;64614;32.062;34.834;2024-03-23T01:29:43;100883.94;;;23.81;42.28
75936;BME280;64614;32.062;34.834;2024-03-23T01:32:09;100875.56;;;23.77;42.32
75936;BME280;64614;32.062;34.834;2024-03-23T01:34:34;100868.75;;;23.74;42.06
75936;BME280;64614;32.062;34.834;2024-03-23T01:37:00;100876.06;;;23.79;42.32
75936;BME280;64614;32.062;34.834;2024-03-23T01:39:26;100858.91;;;23.73;42.49
75936;BME280;64614;32.062;34.834;2024-03-23T01:41:51;100864.25;;;23.78;42.27
75936;BME280;64614;32.062;34.834;2024-03-23T01:44:17;100873.16;;;23.84;42.14
75936;BME280;64614;32.062;34.834;2024-03-23T01:46:43;100870.75;;;23.83;42.18
75936;BME280;64614;32.062;34.834;2024-03-23T01:49:11;100869.44;;;23.80;42.36
75936;BME280;64614;32.062;34.834;2024-03-23T01:51:37;100861.84;;;23.77;42.27
75936;BME280;64614;32.062;34.834;2024-03-23T01:54:03;100862.16;;;23.75;42.51
75936;BME280;64614;32.062;34.834;2024-03-23T01:56:33;100856.00;;;23.70;42.21
75936;BME280;64614;32.062;34.834;2024-03-23T01:59:02;100867.50;;;23.81;42.33
75936;BME280;64614;32.062;34.834;2024-03-23T02:01:28;100861.84;;;23.77;42.47
75936;BME280;64614;32.062;34.834;2024-03-23T02:03:57;100859.41;;;23.75;42.23
75936;BME280;64614;32.062;34.834;2024-03-23T02:06:24;100864.75;;;23.81;42.45
75936;BME280;64614;32.062;34.834;2024-03-23T02:08:50;100858.91;;;23.73;42.34
75936;BME280;64614;32.062;34.834;2024-03-23T02:11:15;100862.63;;;23.77;42.50
75936;BME280;64614;32.062;34.834;2024-03-23T02:13:41;100876.06;;;23.79;42.31
75936;BME280;64614;32.062;34.834;2024-03-23T02:16:07;100862.63;;;23.77;42.33
75936;BME280;64614;32.062;34.834;2024-03-23T02:18:33;100873.94;;;23.76;42.53
75936;BME280;64614;32.062;34.834;2024-03-23T02:20:59;100866.97;;;23.70;42.31
75936;BME280;64614;32.062;34.834;2024-03-23T02:23:24;100844.97;;;23.61;42.38
75936;BME280;64614;32.062;34.834;2024-03-23T02:25:50;100869.38;;;23.71;42.57
75936;BME280;64614;32.062;34.834;2024-03-23T02:28:16;100871.50;;;23.74;42.29
75936;BME280;64614;32.062;34.834;2024-03-23T02:30:42;100865.03;;;23.70;42.46
75936;BME280;64614;32.062;34.834;2024-03-23T02:33:08;100875.88;;;23.75;42.51
75936;BME280;64614;32.062;34.834;2024-03-23T02:35:34;100884.09;;;23.75;42.62
75936;BME280;64614;32.062;34.834;2024-03-23T02:37:59;100877.00;;;23.74;42.55
75936;BME280;64614;32.062;34.834;2024-03-23T02:40:25;100871.50;;;23.74;42.37
75936;BME280;64614;32.062;34.834;2024-03-23T02:42:52;100863.09;;;23.71;42.59
75936;BME280;64614;32.062;34.834;2024-03-23T02:45:18;100877.00;;;23.74;42.51
75936;BME280;64614;32.062;34.834;2024-03-23T02:47:43;100859.34;;;23.67;42.53
75936;BME280;64614;32.062;34.834;2024-03-23T02:50:09;100870.00;;;23.68;42.53
75936;BME280;64614;32.062;34.834;2024-03-23T02:52:35;100875.38;;;23.73;42.68
75936;BME280;64614;32.062;34.834;2024-03-23T02:55:03;100869.72;;;23.70;42.52
75936;BME280;64614;32.062;34.834;2024-03-23T02:57:29;100874.88;;;23.71;42.70
75936;BME280;64614;32.062;34.834;2024-03-23T02:59:55;100874.06;;;23.71;42.36
75936;BME280;64614;32.062;34.834;2024-03-23T03:02:21;100870.31;;;23.67;42.55
75936;BME280;64614;32.062;34.834;2024-03-23T03:04:47;100875.47;;;23.68;42.46
75936;BME280;64614;32.062;34.834;2024-03-23T03:07:13;100878.72;;;23.70;42.65
75936;BME280;64614;32.062;34.834;2024-03-23T03:09:39;100877.59;;;23.71;42.69
75936;BME280;64614;32.062;34.834;2024-03-23T03:12:05;100877.94;;;23.70;42.61
75936;BME280;64614;32.062;34.834;2024-03-23T03:14:31;100870.66;;;23.65;42.65
75936;BME280;64614;32.062;34.834;2024-03-23T03:16:57;100885.34;;;23.69;42.80
75936;BME280;64614;32.062;34.834;2024-03-23T03:19:22;100872.88;;;23.63;42.83
75936;BME280;64614;32.062;34.834;2024-03-23T03:21:48;100888.91;;;23.70;42.63
75936;BME280;64614;32.062;34.834;2024-03-23T03:24:14;100886.44;;;23.68;42.90
75936;BME280;64614;32.062;34.834;2024-03-23T03:26:40;100890.31;;;23.67;42.80
75936;BME280;64614;32.062;34.834;2024-03-23T03:29:05;100892.25;;;23.67;42.68
75936;BME280;64614;32.062;34.834;2024-03-23T03:31:31;100879.00;;;23.60;42.96
75936;BME280;64614;32.062;34.834;2024-03-23T03:33:57;100885.47;;;23.64;43.01
75936;BME280;64614;32.062;34.834;2024-03-23T03:36:22;100892.94;;;23.72;42.61
75936;BME280;64614;32.062;34.834;2024-03-23T03:38:48;100876.59;;;23.67;42.86
75936;BME280;64614;32.062;34.834;2024-03-23T03:41:15;100885.84;;;23.71;42.62
75936;BME280;64614;32.062;34.834;2024-03-23T03:43:40;100875.44;;;23.59;42.96
75936;BME280;64614;32.062;34.834;2024-03-23T03:46:06;100886.41;;;23.59;43.11
75936;BME280;64614;32.062;34.834;2024-03-23T03:48:33;100886.84;;;23.53;43.12
75936;BME280;64614;32.062;34.834;2024-03-23T03:50:59;100890.72;;;23.52;43.07
75936;BME280;64614;32.062;34.834;2024-03-23T03:53:26;100881.78;;;23.46;43.21
75936;BME280;64614;32.062;34.834;2024-03-23T03:55:52;100870.34;;;23.44;42.98
75936;BME280;64614;32.062;34.834;2024-03-23T03:58:18;100892.50;;;23.56;43.02
75936;BME280;64614;32.062;34.834;2024-03-23T04:00:43;100880.38;;;23.49;43.06
75936;BME280;64614;32.062;34.834;2024-03-23T04:03:09;100902.03;;;23.59;43.08
75936;BME280;64614;32.062;34.834;2024-03-23T04:05:35;100899.94;;;23.56;43.13
75936;BME280;64614;32.062;34.834;2024-03-23T04:08:00;100876.13;;;23.42;43.28
75936;BME280;64614;32.062;34.834;2024-03-23T04:10:26;100884.88;;;23.44;43.03
75936;BME280;64614;32.062;34.834;2024-03-23T04:12:52;100891.22;;;23.54;42.99
75936;BME280;64614;32.062;34.834;2024-03-23T04:15:17;100854.97;;;23.34;43.06
75936;BME280;64614;32.062;34.834;2024-03-23T04:17:43;100872.28;;;23.43;43.32
75936;BME280;64614;32.062;34.834;2024-03-23T04:20:09;100892.00;;;23.54;43.47
75936;BME280;64614;32.062;34.834;2024-03-23T04:22:39;100875.84;;;23.44;43.45
75936;BME280;64614;32.062;34.834;2024-03-23T04:25:05;100894.31;;;23.61;43.26
75936;BME280;64614;32.062;34.834;2024-03-23T04:27:38;100890.34;;;23.44;43.43
75936;BME280;64614;32.062;34.834;2024-03-23T04:30:05;100898.19;;;23.60;43.29
75936;BME280;64614;32.062;34.834;2024-03-23T04:32:35;100911.19;;;23.54;43.32
75936;BME280;64614;32.062;34.834;2024-03-23T04:35:01;100900.19;;;23.45;43.34
75936;BME280;64614;32.062;34.834;2024-03-23T04:37:28;100906.00;;;23.44;43.37
75936;BME280;64614;32.062;34.834;2024-03-23T04:39:54;100882.78;;;23.27;43.41
75936;BME280;64614;32.062;34.834;2024-03-23T04:42:19;100910.66;;;23.43;43.67
75936;BME280;64614;32.062;34.834;2024-03-23T04:44:45;100882.94;;;23.22;43.86
75936;BME280;64614;32.062;34.834;2024-03-23T04:47:11;100913.44;;;23.29;43.96
75936;BME280;64614;32.062;34.834;2024-03-23T04:49:36;100897.25;;;23.19;43.75
75936;BME280;64614;32.062;34.834;2024-03-23T04:52:05;100895.63;;;23.18;43.83
75936;BME280;64614;32.062;34.834;2024-03-23T04:54:31;100910.97;;;23.42;43.56
75936;BME280;64614;32.062;34.834;2024-03-23T04:56:59;100926.47;;;23.46;43.39
75936;BME280;64614;32.062;34.834;2024-03-23T04:59:25;100926.47;;;23.46;43.86
75936;BME280;64614;32.062;34.834;2024-03-23T05:01:51;100922.88;;;23.37;43.61
75936;BME280;64614;32.062;34.834;2024-03-23T05:04:17;100915.06;;;23.30;43.75
75936;BME280;64614;32.062;34.834;2024-03-23T05:06:42;100903.31;;;23.30;44.03
75936;BME280;64614;32.062;34.834;2024-03-23T05:09:08;100926.59;;;23.41;43.95
75936;BME280;64614;32.062;34.834;2024-03-23T05:11:41;100914.63;;;23.37;44.14
75936;BME280;64614;32.062;34.834;2024-03-23T05:14:07;100912.66;;;23.29;43.88
75936;BME280;64614;32.062;34.834;2024-03-23T05:16:34;100921.97;;;23.28;44.42
75936;BME280;64614;32.062;34.834;2024-03-23T05:19:00;100922.97;;;23.32;44.13
75936;BME280;64614;32.062;34.834;2024-03-23T05:21:26;100931.41;;;23.36;44.26
75936;BME280;64614;32.062;34.834;2024-03-23T05:23:53;100929.28;;;23.33;44.24
75936;BME280;64614;32.062;34.834;2024-03-23T05:26:19;100924.22;;;23.26;44.18
75936;BME280;64614;32.062;34.834;2024-03-23T05:28:48;100932.94;;;23.28;44.40
75936;BME280;64614;32.062;34.834;2024-03-23T05:31:26;100906.19;;;22.97;44.60
75936;BME280;64614;32.062;34.834;2024-03-23T05:33:52;100930.63;;;23.21;44.37
75936;BME280;64614;32.062;34.834;2024-03-23T05:36:17;100937.72;;;23.22;44.46
75936;BME280;64614;32.062;34.834;2024-03-23T05:38:43;100938.94;;;23.16;44.45
75936;BME280;64614;32.062;34.834;2024-03-23T05:41:09;100941.66;;;23.30;44.44
75936;BME280;64614;32.062;34.834;2024-03-23T05:43:35;100942.41;;;23.44;43.66
75936;BME280;64614;32.062;34.834;2024-03-23T05:46:01;100920.91;;;23.38;43.75
75936;BME280;64614;32.062;34.834;2024-03-23T05:48:27;100933.97;;;23.55;43.61
75936;BME280;64614;32.062;34.834;2024-03-23T05:50:53;100933.13;;;23.54;43.72
75936;BME280;64614;32.062;34.834;2024-03-23T05:53:20;100919.88;;;23.47;43.64
75936;BME280;64614;32.062;34.834;2024-03-23T05:55:49;100936.00;;;23.49;43.82
75936;BME280;64614;32.062;34.834;2024-03-23T05:58:16;100929.22;;;23.46;43.64
75936;BME280;64614;32.062;34.834;2024-03-23T06:00:42;100933.44;;;23.53;43.85
75936;BME280;64614;32.062;34.834;2024-03-23T06:03:08;100905.59;;;23.37;43.95
75936;BME280;64614;32.062;34.834;2024-03-23T06:05:36;100933.06;;;23.45;43.95
75936;BME280;64614;32.062;34.834;2024-03-23T06:08:03;100906.84;;;23.30;43.70
75936;BME280;64614;32.062;34.834;2024-03-23T06:10:29;100914.03;;;23.40;43.82
75936;BME280;64614;32.062;34.834;2024-03-23T06:12:54;100934.31;;;23.62;43.74
75936;BME280;64614;32.062;34.834;2024-03-23T06:15:21;100939.19;;;23.65;43.60
75936;BME280;64614;32.062;34.834;2024-03-23T06:17:48;100912.34;;;23.53;43.56
75936;BME280;64614;32.062;34.834;2024-03-23T06:20:14;100942.72;;;23.66;43.75
75936;BME280;64614;32.062;34.834;2024-03-23T06:22:40;100917.00;;;23.53;43.71
75936;BME280;64614;32.062;34.834;2024-03-23T06:25:06;100942.91;;;23.69;43.85
75936;BME280;64614;32.062;34.834;2024-03-23T06:27:32;100940.59;;;23.62;43.68
75936;BME280;64614;32.062;34.834;2024-03-23T06:29:59;100937.75;;;23.68;43.97
75936;BME280;64614;32.062;34.834;2024-03-23T06:32:25;100952.25;;;23.68;43.94
75936;BME280;64614;32.062;34.834;2024-03-23T06:34:51;100908.28;;;23.51;43.88
75936;BME280;64614;32.062;34.834;2024-03-23T06:37:17;100908.59;;;23.49;43.97
75936;BME280;64614;32.062;34.834;2024-03-23T06:39:43;100913.94;;;23.54;43.81
75936;BME280;64614;32.062;34.834;2024-03-23T06:42:11;100904.66;;;23.41;43.62
75936;BME280;64614;32.062;34.834;2024-03-23T06:44:36;100936.69;;;23.55;43.65
75936;BME280;64614;32.062;34.834;2024-03-23T06:47:02;100933.41;;;23.44;43.25
75936;BME280;64614;32.062;34.834;2024-03-23T06:49:28;100951.66;;;23.49;43.16
75936;BME280;64614;32.062;34.834;2024-03-23T06:51:53;100945.66;;;23.46;43.30
75936;BME280;64614;32.062;34.834;2024-03-23T06:54:19;100917.09;;;23.25;43.22
75936;BME280;64614;32.062;34.834;2024-03-23T06:56:45;100923.09;;;23.27;43.18
75936;BME280;64614;32.062;34.834;2024-03-23T06:59:11;100915.47;;;23.24;43.15
75936;BME280;64614;32.062;34.834;2024-03-23T07:01:36;100912.28;;;23.22;42.89
75936;BME280;64614;32.062;34.834;2024-03-23T07:04:02;100912.56;;;23.20;42.58
75936;BME280;64614;32.062;34.834;2024-03-23T07:06:34;100944.66;;;23.42;42.73
75936;BME280;64614;32.062;34.834;2024-03-23T07:09:00;100912.47;;;23.25;42.81
75936;BME280;64614;32.062;34.834;2024-03-23T07:11:26;100912.47;;;23.25;42.61
75936;BME280;64614;32.062;34.834;2024-03-23T07:13:54;100901.97;;;23.27;42.56
75936;BME280;64614;32.062;34.834;2024-03-23T07:16:26;100895.84;;;23.22;42.63
75936;BME280;64614;32.062;34.834;2024-03-23T07:19:13;100937.13;;;23.48;42.60
75936;BME280;64614;32.062;34.834;2024-03-23T07:21:48;100904.94;;;23.31;42.64
75936;BME280;64614;32.062;34.834;2024-03-23T07:24:14;100911.06;;;23.37;42.52
75936;BME280;64614;32.062;34.834;2024-03-23T07:26:40;100941.25;;;23.59;42.43
75936;BME280;64614;32.062;34.834;2024-03-23T07:29:06;100922.66;;;23.56;42.43
75936;BME280;64614;32.062;34.834;2024-03-23T07:31:32;100912.13;;;23.50;42.66
75936;BME280;64614;32.062;34.834;2024-03-23T07:33:58;100924.28;;;23.57;42.30
75936;BME280;64614;32.062;34.834;2024-03-23T07:36:24;100931.25;;;23.63;42.18
75936;BME280;64614;32.062;34.834;2024-03-23T07:38:50;100921.00;;;23.46;42.28
75936;BME280;64614;32.062;34.834;2024-03-23T07:41:20;100932.88;;;23.65;42.39
75936;BME280;64614;32.062;34.834;2024-03-23T07:43:47;100935.19;;;23.71;41.96
75936;BME280;64614;32.062;34.834;2024-03-23T07:46:14;100928.09;;;23.70;42.50
75936;BME280;64614;32.062;34.834;2024-03-23T07:48:40;100926.81;;;23.76;42.25
75936;BME280;64614;32.062;34.834;2024-03-23T07:51:21;100931.19;;;23.77;42.19
75936;BME280;64614;32.062;34.834;2024-03-23T07:53:47;100918.22;;;23.69;41.91
75936;BME280;64614;32.062;34.834;2024-03-23T07:56:16;100929.13;;;23.83;42.12
75936;BME280;64614;32.062;34.834;2024-03-23T07:58:44;100914.25;;;23.75;41.85
75936;BME280;64614;32.062;34.834;2024-03-23T08:03:43;100931.56;;;23.85;41.81
75936;BME280;64614;32.062;34.834;2024-03-23T08:06:19;100924.16;;;23.85;41.82
75936;BME280;64614;32.062;34.834;2024-03-23T08:08:52;100909.44;;;23.81;41.70
75936;BME280;64614;32.062;34.834;2024-03-23T08:11:29;100924.16;;;23.85;41.19
75936;BME280;64614;32.062;34.834;2024-03-23T08:13:55;100916.25;;;23.84;41.36
75936;BME280;64614;32.062;34.834;2024-03-23T08:16:21;100919.47;;;23.86;41.47
75936;BME280;64614;32.062;34.834;2024-03-23T08:18:47;100899.41;;;23.76;41.60
75936;BME280;64614;32.062;34.834;2024-03-23T08:21:13;100920.09;;;23.83;41.10
75936;BME280;64614;32.062;34.834;2024-03-23T08:23:39;100918.13;;;23.74;40.99
75936;BME280;64614;32.062;34.834;2024-03-23T08:28:32;100912.47;;;23.71;41.29
75936;BME280;64614;32.062;34.834;2024-03-23T08:31:01;100910.84;;;23.70;41.04
75936;BME280;64614;32.062;34.834;2024-03-23T08:33:27;100907.63;;;23.76;41.42
75936;BME280;64614;32.062;34.834;2024-03-23T08:36:03;100900.84;;;23.74;41.12
75936;BME280;64614;32.062;34.834;2024-03-23T08:38:29;100913.00;;;23.82;41.02
75936;BME280;64614;32.062;34.834;2024-03-23T08:43:24;100885.84;;;23.71;41.13
75936;BME280;64614;32.062;34.834;2024-03-23T08:45:50;100898.97;;;23.83;41.20
75936;BME280;64614;32.062;34.834;2024-03-23T08:48:15;100913.19;;;23.85;41.11
75936;BME280;64614;32.062;34.834;2024-03-23T08:50:41;100888.13;;;23.78;40.94
75936;BME280;64614;32.062;34.834;2024-03-23T08:53:09;100897.16;;;23.78;40.81
75936;BME280;64614;32.062;34.834;2024-03-23T08:55:35;100892.69;;;23.83;40.95
75936;BME280;64614;32.062;34.834;2024-03-23T08:58:01;100882.94;;;23.76;40.28
75936;BME280;64614;32.062;34.834;2024-03-23T09:00:26;100893.13;;;23.76;40.30
75936;BME280;64614;32.062;34.834;2024-03-23T09:02:52;100884.09;;;23.75;40.41
75936;BME280;64614;32.062;34.834;2024-03-23T09:05:19;100897.16;;;23.78;40.35
75936;BME280;64614;32.062;34.834;2024-03-23T09:07:44;100891.69;;;23.78;40.40
75936;BME280;64614;32.062;34.834;2024-03-23T09:10:10;100878.13;;;23.73;40.40
75936;BME280;64614;32.062;34.834;2024-03-23T09:12:35;100886.38;;;23.82;40.40
75936;BME280;64614;32.062;34.834;2024-03-23T09:15:02;100883.94;;;23.81;40.54
75936;BME280;64614;32.062;34.834;2024-03-23T09:17:28;100882.00;;;23.81;40.49
75936;BME280;64614;32.062;34.834;2024-03-23T09:19:54;100875.72;;;23.81;40.48
75936;BME280;64614;32.062;34.834;2024-03-23T09:22:19;100873.47;;;23.83;40.34
75936;BME280;64614;32.062;34.834;2024-03-23T09:24:45;100849.41;;;23.71;40.15
75936;BME280;64614;32.062;34.834;2024-03-23T09:27:10;100855.53;;;23.76;40.21
75936;BME280;64614;32.062;34.834;2024-03-23T09:29:36;100859.59;;;23.79;39.36
75936;BME280;64614;32.062;34.834;2024-03-23T09:32:02;100854.41;;;23.77;39.52
75936;BME280;64614;32.062;34.834;2024-03-23T09:34:27;100855.53;;;23.76;39.76
75936;BME280;64614;32.062;34.834;2024-03-23T09:36:53;100856.84;;;23.79;39.80
75936;BME280;64614;32.062;34.834;2024-03-23T09:39:19;100847.31;;;23.76;39.25
75936;BME280;64614;32.062;34.834;2024-03-23T09:41:45;100841.97;;;23.71;39.53
75936;BME280;64614;32.062;34.834;2024-03-23T09:44:11;100833.59;;;23.76;38.99
75936;BME280;64614;32.062;34.834;2024-03-23T09:46:37;100838.28;;;23.76;38.99
75936;BME280;64614;32.062;34.834;2024-03-23T09:49:06;100820.97;;;23.67;39.41
75936;BME280;64614;32.062;34.834;2024-03-23T09:51:35;100828.09;;;23.76;38.89
75936;BME280;64614;32.062;34.834;2024-03-23T09:54:01;100827.63;;;23.74;38.68
75936;BME280;64614;32.062;34.834;2024-03-23T09:56:27;100823.88;;;23.70;38.91
75936;BME280;64614;32.062;34.834;2024-03-23T09:59:00;100835.34;;;23.72;38.61
75936;BME280;64614;32.062;34.834;2024-03-23T10:01:26;100821.78;;;23.67;38.56
75936;BME280;64614;32.062;34.834;2024-03-23T10:03:51;100811.44;;;23.64;38.88
75936;BME280;64614;32.062;34.834;2024-03-23T10:06:21;100794.50;;;23.62;38.47
75936;BME280;64614;32.062;34.834;2024-03-23T10:08:47;100799.53;;;23.69;38.81
75936;BME280;64614;32.062;34.834;2024-03-23T10:11:14;100800.16;;;23.66;38.59
75936;BME280;64614;32.062;34.834;2024-03-23T10:13:42;100793.22;;;23.68;38.44
75936;BME280;64614;32.062;34.834;2024-03-23T10:16:09;100787.41;;;23.61;38.20
75936;BME280;64614;32.062;34.834;2024-03-23T10:18:39;100791.94;;;23.66;38.37
75936;BME280;64614;32.062;34.834;2024-03-23T10:21:09;100787.22;;;23.57;38.47
75936;BME280;64614;32.062;34.834;2024-03-23T10:23:37;100788.41;;;23.65;38.44
75936;BME280;64614;32.062;34.834;2024-03-23T10:31:21;100773.50;;;23.57;38.32
75936;BME280;64614;32.062;34.834;2024-03-23T10:33:47;100766.59;;;23.60;38.36
75936;BME280;64614;32.062;34.834;2024-03-23T10:36:13;100765.13;;;23.54;38.46
75936;BME280;64614;32.062;34.834;2024-03-23T10:38:44;100750.13;;;23.60;37.90
75936;BME280;64614;32.062;34.834;2024-03-23T10:41:10;100759.81;;;23.57;37.91
75936;BME280;64614;32.062;34.834;2024-03-23T10:43:37;100745.31;;;23.57;38.16
75936;BME280;64614;32.062;34.834;2024-03-23T10:46:04;100741.06;;;23.51;38.34
75936;BME280;64614;32.062;34.834;2024-03-23T10:48:30;100728.19;;;23.51;38.36
75936;BME280;64614;32.062;34.834;2024-03-23T10:50:56;100743.84;;;23.59;38.48
75936;BME280;64614;32.062;34.834;2024-03-23T10:53:25;100713.97;;;23.49;38.74
75936;BME280;64614;32.062;34.834;2024-03-23T10:55:51;100712.09;;;23.58;38.79
75936;BME280;64614;32.062;34.834;2024-03-23T10:58:20;100711.13;;;23.63;38.92
75936;BME280;64614;32.062;34.834;2024-03-23T11:00:47;100709.84;;;23.60;38.86
75936;BME280;64614;32.062;34.834;2024-03-23T11:03:38;100707.28;;;23.64;39.19
75936;BME280;64614;32.062;34.834;2024-03-23T11:06:07;100714.66;;;23.63;39.21
75936;BME280;64614;32.062;34.834;2024-03-23T11:08:40;100709.19;;;23.63;39.22
75936;BME280;64614;32.062;34.834;2024-03-23T11:11:19;100682.56;;;23.55;39.36
75936;BME280;64614;32.062;34.834;2024-03-23T11:13:48;100693.84;;;23.62;39.29
75936;BME280;64614;32.062;34.834;2024-03-23T11:16:14;100686.97;;;23.74;39.08
75936;BME280;64614;32.062;34.834;2024-03-23T11:18:41;100688.38;;;23.62;39.35
75936;BME280;64614;32.062;34.834;2024-03-23T11:21:08;100672.72;;;23.54;39.26
75936;BME280;64614;32.062;34.834;2024-03-23T11:23:33;100662.06;;;23.53;39.61
75936;BME280;64614;32.062;34.834;2024-03-23T11:25:59;100657.09;;;23.55;39.35
75936;BME280;64614;32.062;34.834;2024-03-23T11:28:25;100673.38;;;23.60;39.39
75936;BME280;64614;32.062;34.834;2024-03-23T11:30:50;100649.81;;;23.50;39.38
75936;BME280;64614;32.062;34.834;2024-03-23T11:33:16;100661.28;;;23.61;39.66
75936;BME280;64614;32.062;34.834;2024-03-23T11:35:42;100650.31;;;23.61;39.54
75936;BME280;64614;32.062;34.834;2024-03-23T11:38:16;100643.06;;;23.56;39.99
75936;BME280;64614;32.062;34.834;2024-03-23T11:40:49;100645.50;;;23.58;39.75
75936;BME280;64614;32.062;34.834;2024-03-23T11:43:19;100647.44;;;23.66;39.61
75936;BME280;64614;32.062;34.834;2024-03-23T11:45:50;100654.53;;;23.67;39.95
75936;BME280;64614;32.062;34.834;2024-03-23T11:48:22;100631.63;;;23.63;39.90
75936;BME280;64614;32.062;34.834;2024-03-23T11:50:49;100631.47;;;23.59;39.73
75936;BME280;64614;32.062;34.834;2024-03-23T11:53:19;100644.53;;;23.71;40.04
75936;BME280;64614;32.062;34.834;2024-03-23T11:56:05;100634.88;;;23.74;40.03
75936;BME280;64614;32.062;34.834;2024-03-23T11:58:31;100635.69;;;23.74;39.94
75936;BME280;64614;32.062;34.834;2024-03-23T12:01:04;100629.72;;;23.72;40.31
75936;BME280;64614;32.062;34.834;2024-03-23T12:03:31;100623.72;;;23.70;40.09
75936;BME280;64614;32.062;34.834;2024-03-23T12:06:03;100596.94;;;23.58;40.05
75936;BME280;64614;32.062;34.834;2024-03-23T12:08:30;100614.88;;;23.73;40.03
75936;BME280;64614;32.062;34.834;2024-03-23T12:11:10;100610.22;;;23.83;40.33
75936;BME280;64614;32.062;34.834;2024-03-23T12:13:37;100608.59;;;23.82;40.27
75936;BME280;64614;32.062;34.834;2024-03-23T12:16:16;100612.78;;;23.88;40.22
75936;BME280;64614;32.062;34.834;2024-03-23T12:18:44;100610.53;;;23.90;40.46
75936;BME280;64614;32.062;34.834;2024-03-23T12:21:10;100576.78;;;23.72;40.46
75936;BME280;64614;32.062;34.834;2024-03-23T12:23:39;100599.69;;;23.85;40.58
75936;BME280;64614;32.062;34.834;2024-03-23T12:26:05;100611.03;;;23.92;40.24
75936;BME280;64614;32.062;34.834;2024-03-23T12:28:32;100604.91;;;23.95;40.27
75936;BME280;64614;32.062;34.834;2024-03-23T12:30:58;100598.63;;;23.94;40.46
75936;BME280;64614;32.062;34.834;2024-03-23T12:33:23;100598.44;;;23.91;40.35
75936;BME280;64614;32.062;34.834;2024-03-23T12:35:52;100600.72;;;23.98;40.19
75936;BME280;64614;32.062;34.834;2024-03-23T12:38:19;100587.81;;;23.98;40.45
75936;BME280;64614;32.062;34.834;2024-03-23T12:40:49;100596.53;;;24.00;40.53
75936;BME280;64614;32.062;34.834;2024-03-23T12:43:15;100588.75;;;24.02;40.42
75936;BME280;64614;32.062;34.834;2024-03-23T12:45:45;100595.06;;;24.03;40.59
75936;BME280;64614;32.062;34.834;2024-03-23T12:48:11;100582.31;;;23.98;40.39
75936;BME280;64614;32.062;34.834;2024-03-23T12:50:37;100589.59;;;24.03;40.63
75936;BME280;64614;32.062;34.834;2024-03-23T12:53:03;100592.66;;;24.10;40.69
75936;BME280;64614;32.062;34.834;2024-03-23T12:55:29;100579.56;;;24.07;40.61
75936;BME280;64614;32.062;34.834;2024-03-23T12:57:54;100592.00;;;24.13;40.71
75936;BME280;64614;32.062;34.834;2024-03-23T13:00:20;100596.69;;;24.13;40.57
75936;BME280;64614;32.062;34.834;2024-03-23T13:02:45;100578.78;;;24.06;40.82
75936;BME280;64614;32.062;34.834;2024-03-23T13:05:11;100584.25;;;24.06;40.50
75936;BME280;64614;32.062;34.834;2024-03-23T13:07:37;100578.78;;;24.06;40.61
75936;BME280;64614;32.062;34.834;2024-03-23T13:10:04;100581.53;;;24.15;40.45
75936;BME280;64614;32.062;34.834;2024-03-23T13:12:30;100576.50;;;24.17;40.69
75936;BME280;64614;32.062;34.834;2024-03-23T13:14:56;100571.19;;;24.03;40.51
75936;BME280;64614;32.062;34.834;2024-03-23T13:17:22;100586.34;;;24.18;40.58
75936;BME280;64614;32.062;34.834;2024-03-23T13:19:47;100571.03;;;24.08;40.57
75936;BME280;64614;32.062;34.834;2024-03-23T13:22:13;100538.44;;;23.98;40.67
75936;BME280;64614;32.062;34.834;2024-03-23T13:24:39;100526.69;;;23.98;40.59
75936;BME280;64614;32.062;34.834;2024-03-23T13:27:05;100558.25;;;24.13;40.70
75936;BME280;64614;32.062;34.834;2024-03-23T13:29:34;100552.81;;;24.04;40.84
75936;BME280;64614;32.062;34.834;2024-03-23T13:32:01;100572.28;;;24.20;40.75
75936;BME280;64614;32.062;34.834;2024-03-23T13:34:26;100538.59;;;24.02;40.60
75936;BME280;64614;32.062;34.834;2024-03-23T13:36:53;100551.34;;;24.06;40.58
75936;BME280;64614;32.062;34.834;2024-03-23T13:39:19;100550.19;;;24.16;40.63
75936;BME280;64614;32.062;34.834;2024-03-23T13:41:45;100544.41;;;24.18;40.68
75936;BME280;64614;32.062;34.834;2024-03-23T13:44:20;100560.97;;;24.30;40.61
75936;BME280;64614;32.062;34.834;2024-03-23T13:46:45;100530.78;;;24.39;40.44